createdAt,value
2017-12-01T00:02:16.381Z,94569.05
2017-12-01T00:04:45.529Z,94567.20
2017-12-01T00:07:14.617Z,94567.73
2017-12-01T00:09:44.660Z,94570.86
2017-12-01T00:12:13.710Z,94569.52
2017-12-01T00:14:50.524Z,94567.64
2017-12-01T00:19:57.591Z,94572.59
2017-12-01T00:22:26.747Z,94576.41
2017-12-01T00:24:55.846Z,94580.84
2017-12-01T00:27:24.909Z,94586.33
2017-12-01T00:29:59.266Z,94592.29
2017-12-01T00:32:28.402Z,94590.39
2017-12-01T00:34:57.511Z,94591.02
2017-12-01T00:37:26.537Z,94600.06
2017-12-01T00:42:38.902Z,94597.25
2017-12-01T00:45:07.949Z,94600.03
2017-12-01T00:47:42.454Z,94597.72
2017-12-01T00:50:11.511Z,94600.20
2017-12-01T00:52:41.601Z,94600.85
2017-12-01T00:55:10.654Z,94605.88
2017-12-01T00:57:39.723Z,94608.36
2017-12-01T01:00:08.778Z,94613.77
2017-12-01T01:05:13.951Z,94617.12
2017-12-01T01:07:44.920Z,94617.08
2017-12-01T01:10:13.958Z,94613.23
2017-12-01T01:15:18.770Z,94612.73
2017-12-01T01:17:56.630Z,94612.66
2017-12-01T01:20:37.488Z,94610.91
2017-12-01T01:23:06.500Z,94612.59
2017-12-01T01:25:37.471Z,94614.37
2017-12-01T01:28:06.498Z,94617.25
2017-12-01T01:30:35.547Z,94620.67
2017-12-01T01:33:04.578Z,94616.48
2017-12-01T01:38:11.772Z,94614.88
2017-12-01T01:40:58.611Z,94619.23
2017-12-01T01:43:27.662Z,94619.98
2017-12-01T01:45:58.602Z,94616.13
2017-12-01T01:51:04.772Z,94618.48
2017-12-01T01:53:37.550Z,94622.63
2017-12-01T01:56:06.611Z,94621.50
2017-12-01T01:58:35.669Z,94619.36
2017-12-01T02:01:04.714Z,94623.32
2017-12-01T02:03:34.767Z,94621.64
2017-12-01T02:06:03.809Z,94623.84
2017-12-01T02:08:40.754Z,94627.11
2017-12-01T02:11:09.809Z,94622.81
2017-12-01T02:13:38.893Z,94621.22
2017-12-01T02:16:07.939Z,94622.61
2017-12-01T02:18:36.988Z,94620.18
2017-12-01T02:21:06.046Z,94617.28
2017-12-01T02:23:39.156Z,94622.94
2017-12-01T02:26:08.198Z,94627.92
2017-12-01T02:28:37.284Z,94626.30
2017-12-01T02:31:06.330Z,94627.58
2017-12-01T02:33:36.390Z,94623.41
2017-12-01T02:36:05.453Z,94626.26
2017-12-01T02:38:35.487Z,94636.06
2017-12-01T02:41:04.533Z,94631.77
2017-12-01T02:43:35.664Z,94634.78
2017-12-01T02:46:04.675Z,94644.52
2017-12-01T02:48:38.243Z,94654.50
2017-12-01T02:51:07.287Z,94646.52
2017-12-01T02:53:49.599Z,94646.81
2017-12-01T02:56:28.571Z,94651.29
2017-12-01T02:58:58.510Z,94647.68
2017-12-01T03:01:35.328Z,94645.48
2017-12-01T03:04:04.383Z,94647.73
2017-12-01T03:06:33.458Z,94647.70
2017-12-01T03:09:02.507Z,94651.44
2017-12-01T03:11:33.465Z,94656.23
2017-12-01T03:14:02.519Z,94651.56
2017-12-01T03:16:35.582Z,94648.09
2017-12-01T03:19:04.614Z,94650.27
2017-12-01T03:24:11.803Z,94642.86
2017-12-01T03:26:40.887Z,94643.59
2017-12-01T03:29:09.966Z,94643.69
2017-12-01T03:31:54.781Z,94644.63
2017-12-01T03:34:24.849Z,94654.09
2017-12-01T03:36:53.893Z,94658.21
2017-12-01T03:39:22.938Z,94657.89
2017-12-01T03:41:53.908Z,94658.41
2017-12-01T03:44:26.664Z,94656.09
2017-12-01T03:47:02.706Z,94655.88
2017-12-01T03:49:31.715Z,94654.88
2017-12-01T03:52:00.765Z,94650.73
2017-12-01T03:54:29.879Z,94651.02
2017-12-01T03:56:58.934Z,94658.30
2017-12-01T03:59:27.978Z,94658.47
2017-12-01T04:01:57.018Z,94655.52
2017-12-01T04:04:26.215Z,94656.34
2017-12-01T04:06:55.264Z,94658.14
2017-12-01T04:09:24.312Z,94652.60
2017-12-01T04:11:53.366Z,94660.21
2017-12-01T04:14:22.411Z,94665.20
2017-12-01T04:16:51.473Z,94664.56
2017-12-01T04:19:20.510Z,94665.19
2017-12-01T04:21:58.424Z,94667.06
2017-12-01T04:24:33.459Z,94665.95
2017-12-01T04:27:02.522Z,94670.52
2017-12-01T04:29:31.569Z,94670.53
2017-12-01T04:32:00.614Z,94671.77
2017-12-01T04:34:29.670Z,94675.16
2017-12-01T04:36:58.782Z,94684.60
2017-12-01T04:39:29.786Z,94677.41
2017-12-01T04:41:58.839Z,94684.73
2017-12-01T04:44:27.890Z,94683.40
2017-12-01T04:49:36.351Z,94681.94
2017-12-01T04:52:06.289Z,94683.13
2017-12-01T04:54:36.382Z,94682.40
2017-12-01T04:57:05.423Z,94680.44
2017-12-01T04:59:34.478Z,94686.22
2017-12-01T05:02:03.522Z,94689.28
2017-12-01T05:04:33.931Z,94688.59
2017-12-01T05:07:51.742Z,94695.61
2017-12-01T05:10:20.805Z,94695.95
2017-12-01T05:12:49.877Z,94699.05
2017-12-01T05:15:27.089Z,94693.73
2017-12-01T05:17:56.147Z,94693.71
2017-12-01T05:20:30.489Z,94703.56
2017-12-01T05:22:59.554Z,94699.59
2017-12-01T05:25:28.691Z,94710.11
2017-12-01T05:27:57.762Z,94711.17
2017-12-01T05:30:26.836Z,94717.34
2017-12-01T05:33:03.774Z,94714.91
2017-12-01T05:35:32.826Z,94721.28
2017-12-01T05:38:03.807Z,94714.88
2017-12-01T05:40:32.849Z,94719.18
2017-12-01T05:43:12.074Z,94724.11
2017-12-01T05:45:41.127Z,94728.08
2017-12-01T05:48:10.223Z,94726.71
2017-12-01T05:50:42.301Z,94736.91
2017-12-01T05:53:11.357Z,94742.37
2017-12-01T05:55:40.449Z,94747.05
2017-12-01T05:58:09.502Z,94749.70
2017-12-01T06:00:38.548Z,94746.73
2017-12-01T06:03:18.445Z,94753.53
2017-12-01T06:05:47.489Z,94749.96
2017-12-01T06:08:17.591Z,94752.53
2017-12-01T06:10:47.514Z,94753.67
2017-12-01T06:13:25.918Z,94763.14
2017-12-01T06:18:32.073Z,94765.22
2017-12-01T06:21:03.150Z,94763.13
2017-12-01T06:23:33.114Z,94764.70
2017-12-01T06:26:04.220Z,94768.67
2017-12-01T06:28:33.290Z,94775.62
2017-12-01T06:31:02.313Z,94774.94
2017-12-01T06:33:32.263Z,94775.53
2017-12-01T06:36:13.168Z,94779.08
2017-12-01T06:38:43.118Z,94780.40
2017-12-01T06:41:21.798Z,94783.13
2017-12-01T06:43:50.867Z,94787.17
2017-12-01T06:46:19.918Z,94794.86
2017-12-01T06:48:48.950Z,94796.66
2017-12-01T06:51:18.006Z,94797.89
2017-12-01T06:53:52.669Z,94806.44
2017-12-01T06:56:21.807Z,94807.32
2017-12-01T06:58:50.851Z,94807.33
2017-12-01T07:01:19.919Z,94808.03
2017-12-01T07:03:48.985Z,94811.20
2017-12-01T07:11:39.719Z,94826.48
2017-12-01T07:14:08.771Z,94820.25
2017-12-01T07:16:37.814Z,94826.13
2017-12-01T07:21:50.030Z,94836.38
2017-12-01T07:24:20.074Z,94839.19
2017-12-01T07:32:07.393Z,94851.27
2017-12-01T07:34:36.504Z,94852.34
2017-12-01T07:39:43.278Z,94861.72
2017-12-01T07:42:13.470Z,94865.30
2017-12-01T07:44:46.305Z,94866.47
2017-12-01T07:47:15.360Z,94872.55
2017-12-01T07:49:48.764Z,94880.39
2017-12-01T07:52:27.839Z,94882.94
2017-12-01T07:54:56.902Z,94886.36
2017-12-01T07:57:33.004Z,94891.42
2017-12-01T08:00:02.023Z,94895.36
2017-12-01T08:02:31.086Z,94902.20
2017-12-01T08:05:01.090Z,94898.64
2017-12-01T08:07:30.940Z,94906.35
2017-12-01T08:09:59.980Z,94909.00
2017-12-01T08:12:29.054Z,94911.75
2017-12-01T08:15:00.131Z,94917.37
2017-12-01T08:17:31.820Z,94922.89
2017-12-01T08:20:00.880Z,94925.70
2017-12-01T08:22:48.659Z,94931.80
2017-12-01T08:25:28.529Z,94931.31
2017-12-01T08:27:57.588Z,94934.78
2017-12-01T08:30:26.612Z,94940.65
2017-12-01T08:35:42.981Z,94937.28
2017-12-01T08:40:48.682Z,94935.78
2017-12-01T08:43:17.745Z,94941.28
2017-12-01T08:45:48.487Z,94942.64
2017-12-01T08:48:17.525Z,94944.27
2017-12-01T08:50:47.915Z,94947.69
2017-12-01T08:53:17.910Z,94949.98
2017-12-01T08:55:48.065Z,94948.87
2017-12-01T08:58:21.650Z,94951.67
2017-12-01T09:00:50.706Z,94954.78
2017-12-01T09:03:25.191Z,94955.00
2017-12-01T09:06:05.307Z,94960.52
2017-12-01T09:08:34.342Z,94959.62
2017-12-01T09:11:03.432Z,94964.97
2017-12-01T09:13:32.458Z,94972.53
2017-12-01T09:16:16.513Z,94969.31
2017-12-01T09:21:23.855Z,94974.48
2017-12-01T09:23:53.233Z,94970.33
2017-12-01T09:26:22.278Z,94978.37
2017-12-01T09:28:51.312Z,94984.72
2017-12-01T09:31:22.293Z,94986.34
2017-12-01T09:33:51.338Z,94987.48
2017-12-01T09:36:29.596Z,94989.53
2017-12-01T09:38:58.643Z,94991.63
2017-12-01T09:41:27.685Z,94991.98
2017-12-01T09:43:56.715Z,94993.54
2017-12-01T09:46:35.969Z,94986.09
2017-12-01T09:49:05.001Z,94990.70
2017-12-01T09:51:34.023Z,94991.13
2017-12-01T09:54:03.068Z,94995.63
2017-12-01T09:59:08.599Z,94985.86
2017-12-01T10:01:37.690Z,94988.64
2017-12-01T10:04:06.714Z,94983.91
2017-12-01T10:06:49.975Z,94980.30
2017-12-01T10:09:20.932Z,94984.00
2017-12-01T10:11:49.986Z,94978.80
2017-12-01T10:14:19.034Z,94980.98
2017-12-01T10:16:48.074Z,94980.89
2017-12-01T10:19:24.774Z,94986.66
2017-12-01T10:21:53.767Z,94979.02
2017-12-01T10:26:58.489Z,94978.93
2017-12-01T10:29:40.813Z,94985.02
2017-12-01T10:32:09.849Z,94985.16
2017-12-01T10:34:38.878Z,94977.93
2017-12-01T10:37:07.923Z,94981.21
2017-12-01T10:39:39.983Z,94983.36
2017-12-01T10:42:09.005Z,94981.04
2017-12-01T10:44:38.045Z,94980.32
2017-12-01T10:47:07.122Z,94981.94
2017-12-01T10:52:12.329Z,94982.21
2017-12-01T10:57:19.545Z,94985.76
2017-12-01T10:59:50.504Z,94997.29
2017-12-01T11:02:19.539Z,94993.30
2017-12-01T11:04:50.485Z,94992.44
2017-12-01T11:07:26.830Z,94991.81
2017-12-01T11:09:56.774Z,94992.40
2017-12-01T11:12:25.842Z,94990.00
2017-12-01T11:14:54.853Z,94990.75
2017-12-01T11:17:24.025Z,94997.48
2017-12-01T11:19:55.009Z,94995.58
2017-12-01T11:22:24.960Z,94997.07
2017-12-01T11:24:54.928Z,95005.45
2017-12-01T11:27:25.910Z,95005.03
2017-12-01T11:29:55.963Z,95004.73
2017-12-01T11:32:25.058Z,95002.97
2017-12-01T11:34:55.035Z,95000.52
2017-12-01T11:37:24.074Z,95009.20
2017-12-01T11:39:53.114Z,95017.39
2017-12-01T11:42:22.149Z,95014.44
2017-12-01T11:47:29.366Z,95018.58
2017-12-01T11:49:58.624Z,95016.87
2017-12-01T11:52:27.662Z,95018.17
2017-12-01T11:54:56.697Z,95022.73
2017-12-01T11:57:25.877Z,95023.30
2017-12-01T11:59:56.029Z,95024.95
2017-12-01T12:02:25.121Z,95019.92
2017-12-01T12:04:55.285Z,95023.64
2017-12-01T12:07:24.325Z,95026.02
2017-12-01T12:09:55.349Z,95021.63
2017-12-01T12:12:24.387Z,95020.20
2017-12-01T12:14:53.451Z,95018.61
2017-12-01T12:17:22.480Z,95018.09
2017-12-01T12:19:56.913Z,95022.09
2017-12-01T12:22:25.948Z,95029.39
2017-12-01T12:24:55.029Z,95031.91
2017-12-01T12:27:24.041Z,95032.81
2017-12-01T12:29:58.355Z,95035.88
2017-12-01T12:32:27.459Z,95036.99
2017-12-01T12:34:56.550Z,95039.83
2017-12-01T12:40:10.906Z,95043.25
2017-12-01T12:42:41.303Z,95042.89
2017-12-01T12:45:21.691Z,95048.16
2017-12-01T12:47:50.722Z,95049.00
2017-12-01T12:50:21.660Z,95049.23
2017-12-01T12:53:13.569Z,95061.98
2017-12-01T12:55:46.244Z,95063.84
2017-12-01T12:58:21.171Z,95052.38
2017-12-01T13:00:53.679Z,95049.05
2017-12-01T13:03:23.879Z,95046.60
2017-12-01T13:05:52.901Z,95049.05
2017-12-01T13:08:21.950Z,95054.97
2017-12-01T13:10:51.098Z,95054.37
2017-12-01T13:13:20.126Z,95058.27
2017-12-01T13:15:58.283Z,95059.02
2017-12-01T13:18:27.403Z,95063.86
2017-12-01T13:20:56.434Z,95063.84
2017-12-01T13:23:25.476Z,95062.95
2017-12-01T13:28:29.754Z,95063.66
2017-12-01T13:31:21.506Z,95060.00
2017-12-01T13:33:50.554Z,95060.92
2017-12-01T13:36:19.593Z,95063.16
2017-12-01T13:38:48.627Z,95064.80
2017-12-01T13:41:21.998Z,95070.23
2017-12-01T13:43:51.034Z,95079.98
2017-12-01T13:46:21.986Z,95082.77
2017-12-01T13:51:58.139Z,95086.20
2017-12-01T13:54:27.190Z,95090.17
2017-12-01T13:56:57.150Z,95091.59
2017-12-01T13:59:26.199Z,95095.17
2017-12-01T14:04:33.088Z,95100.05
2017-12-01T14:07:11.004Z,95102.66
2017-12-01T14:09:40.055Z,95107.45
2017-12-01T14:12:21.850Z,95103.00
2017-12-01T14:14:59.137Z,95105.52
2017-12-01T14:17:28.186Z,95112.43
2017-12-01T14:19:59.270Z,95117.20
2017-12-01T14:22:28.325Z,95119.53
2017-12-01T14:24:57.367Z,95119.34
2017-12-01T14:27:26.408Z,95118.14
2017-12-01T14:29:55.458Z,95121.74
2017-12-01T14:32:24.512Z,95124.51
2017-12-01T14:34:59.500Z,95128.44
2017-12-01T14:37:29.563Z,95132.20
2017-12-01T14:40:04.271Z,95142.08
2017-12-01T14:42:33.418Z,95150.55
2017-12-01T14:45:02.545Z,95159.09
2017-12-01T14:47:31.597Z,95156.33
2017-12-01T14:50:22.199Z,95158.48
2017-12-01T14:52:51.300Z,95166.16
2017-12-01T14:55:20.776Z,95163.81
2017-12-01T14:57:49.994Z,95170.13
2017-12-01T15:00:22.387Z,95166.50
2017-12-01T15:05:34.066Z,95168.94
2017-12-01T15:13:21.696Z,95171.08
2017-12-01T15:18:27.957Z,95178.83
2017-12-01T15:23:37.159Z,95181.73
2017-12-01T15:26:12.021Z,95189.80
2017-12-01T15:28:41.078Z,95193.11
2017-12-01T15:33:48.326Z,95202.36
2017-12-01T15:36:22.055Z,95209.25
2017-12-01T15:38:58.234Z,95211.91
2017-12-01T15:41:27.299Z,95215.38
2017-12-01T15:43:56.350Z,95217.46
2017-12-01T15:46:26.301Z,95222.59
2017-12-01T15:48:55.342Z,95229.92
2017-12-01T15:51:24.429Z,95227.83
2017-12-01T15:53:55.478Z,95230.86
2017-12-01T15:56:24.538Z,95230.70
2017-12-01T16:01:40.872Z,95238.08
2017-12-01T16:04:13.465Z,95235.47
2017-12-01T16:09:23.167Z,95248.55
2017-12-01T16:14:30.364Z,95255.34
2017-12-01T16:17:10.559Z,95257.91
2017-12-01T16:19:39.858Z,95256.32
2017-12-01T16:24:48.130Z,95265.16
2017-12-01T16:27:19.197Z,95262.23
2017-12-01T16:30:11.927Z,95267.08
2017-12-01T16:32:42.485Z,95268.75
2017-12-01T16:35:11.152Z,95269.28
2017-12-01T16:37:40.190Z,95265.48
2017-12-01T16:40:09.250Z,95275.80
2017-12-01T16:42:38.355Z,95276.33
2017-12-01T16:45:07.441Z,95277.16
2017-12-01T16:47:36.490Z,95274.89
2017-12-01T16:50:05.560Z,95276.45
2017-12-01T16:52:34.632Z,95275.28
2017-12-01T16:55:03.682Z,95277.41
2017-12-01T16:57:32.783Z,95278.64
2017-12-01T17:00:01.866Z,95280.84
2017-12-01T17:02:30.990Z,95278.45
2017-12-01T17:05:00.079Z,95277.12
2017-12-01T17:07:29.139Z,95280.39
2017-12-01T17:09:58.194Z,95285.56
2017-12-01T17:12:27.250Z,95288.22
2017-12-01T17:14:58.215Z,95289.34
2017-12-01T17:17:27.275Z,95282.67
2017-12-01T17:22:33.478Z,95282.83
2017-12-01T17:25:17.290Z,95291.48
2017-12-01T17:30:23.469Z,95291.88
2017-12-01T17:33:00.990Z,95298.06
2017-12-01T17:35:30.108Z,95301.30
2017-12-01T17:37:59.146Z,95299.38
2017-12-01T17:40:28.318Z,95300.70
2017-12-01T17:45:39.260Z,95301.31
2017-12-01T17:48:08.287Z,95306.91
2017-12-01T17:50:37.363Z,95311.19
2017-12-01T17:56:00.374Z,95313.66
2017-12-01T17:58:29.435Z,95308.73
2017-12-01T18:01:13.945Z,95305.56
2017-12-01T18:06:26.098Z,95314.45
2017-12-01T18:09:03.929Z,95310.31
2017-12-01T18:11:32.997Z,95306.67
2017-12-01T18:16:52.195Z,95307.02
2017-12-01T18:19:22.179Z,95310.95
2017-12-01T18:21:59.869Z,95309.91
2017-12-01T18:24:28.951Z,95309.94
2017-12-01T18:29:42.642Z,95323.93
2017-12-01T18:32:12.654Z,95328.13
2017-12-01T18:34:41.724Z,95326.66
2017-12-01T18:37:10.894Z,95330.41
2017-12-01T18:39:39.942Z,95336.64
2017-12-01T18:42:09.099Z,95334.21
2017-12-01T18:47:17.301Z,95341.80
2017-12-01T18:49:46.387Z,95343.03
2017-12-01T18:54:59.156Z,95343.68
2017-12-01T18:57:28.199Z,95350.59
2017-12-01T18:59:57.270Z,95353.40
2017-12-01T19:02:26.318Z,95361.26
2017-12-01T19:04:55.380Z,95362.59
2017-12-01T19:07:29.543Z,95358.94
2017-12-01T19:09:58.589Z,95361.33
2017-12-01T19:12:27.748Z,95363.17
2017-12-01T19:14:56.873Z,95363.67
2017-12-01T19:20:11.073Z,95370.78
2017-12-01T19:22:43.790Z,95372.47
2017-12-01T19:25:14.837Z,95372.64
2017-12-01T19:27:44.801Z,95372.53
2017-12-01T19:30:13.861Z,95371.27
2017-12-01T19:32:43.878Z,95371.45
2017-12-01T19:35:17.864Z,95374.05
2017-12-01T19:37:47.850Z,95369.40
2017-12-01T19:40:16.917Z,95373.75
2017-12-01T19:42:46.067Z,95376.29
2017-12-01T19:45:15.122Z,95382.70
2017-12-01T19:47:44.185Z,95374.30
2017-12-01T19:50:13.230Z,95378.22
2017-12-01T19:52:42.289Z,95379.02
2017-12-01T19:55:12.286Z,95380.38
2017-12-01T19:57:42.563Z,95383.56
2017-12-01T20:00:15.915Z,95385.08
2017-12-01T20:02:45.377Z,95388.09
2017-12-01T20:05:14.442Z,95391.85
2017-12-01T20:07:44.397Z,95398.36
2017-12-01T20:12:50.367Z,95398.34
2017-12-01T20:15:23.102Z,95402.17
2017-12-01T20:17:52.367Z,95406.83
2017-12-01T20:20:24.775Z,95407.16
2017-12-01T20:22:54.148Z,95412.03
2017-12-01T20:28:01.715Z,95420.98
2017-12-01T20:30:41.182Z,95425.44
2017-12-01T20:33:12.751Z,95426.36
2017-12-01T20:35:43.694Z,95426.66
2017-12-01T20:38:12.802Z,95432.32
2017-12-01T20:40:41.929Z,95427.98
2017-12-01T20:43:12.423Z,95433.49
2017-12-01T20:45:43.564Z,95440.64
2017-12-01T20:48:12.657Z,95443.84
2017-12-01T20:50:42.597Z,95438.85
2017-12-01T20:53:38.359Z,95441.91
2017-12-01T20:56:19.864Z,95442.02
2017-12-01T20:58:49.459Z,95449.81
2017-12-01T21:01:19.793Z,95445.42
2017-12-01T21:03:49.046Z,95442.50
2017-12-01T21:06:20.158Z,95449.25
2017-12-01T21:08:49.209Z,95446.14
2017-12-01T21:14:02.363Z,95452.03
2017-12-01T21:16:43.169Z,95450.84
2017-12-01T21:19:12.231Z,95447.21
2017-12-01T21:21:43.179Z,95443.37
2017-12-01T21:24:21.669Z,95447.86
2017-12-01T21:26:50.719Z,95454.76
2017-12-01T21:29:33.169Z,95454.53
2017-12-01T21:32:02.222Z,95455.63
2017-12-01T21:34:41.364Z,95458.58
2017-12-01T21:37:19.730Z,95458.92
2017-12-01T21:39:48.810Z,95466.34
2017-12-01T21:42:19.759Z,95472.30
2017-12-01T21:44:50.019Z,95473.13
2017-12-01T21:49:54.425Z,95480.52
2017-12-01T21:55:19.747Z,95491.14
2017-12-01T21:57:48.863Z,95491.69
2017-12-01T22:00:21.225Z,95492.05
2017-12-01T22:02:50.297Z,95494.02
2017-12-01T22:05:20.173Z,95492.62
2017-12-01T22:10:28.147Z,95491.72
2017-12-01T22:12:57.190Z,95490.75
2017-12-01T22:15:26.249Z,95496.64
2017-12-01T22:20:33.100Z,95502.56
2017-12-01T22:23:02.167Z,95505.62
2017-12-01T22:25:31.222Z,95503.14
2017-12-01T22:28:04.846Z,95504.87
2017-12-01T22:30:33.896Z,95505.06
2017-12-01T22:33:06.442Z,95506.43
2017-12-01T22:35:35.495Z,95511.87
2017-12-01T22:38:04.542Z,95511.34
2017-12-01T22:40:33.601Z,95512.51
2017-12-01T22:43:02.677Z,95512.70
2017-12-01T22:45:31.802Z,95519.52
2017-12-01T22:48:00.855Z,95529.23
2017-12-01T22:50:30.794Z,95522.47
2017-12-01T22:52:59.842Z,95520.66
2017-12-01T22:55:28.922Z,95524.09
2017-12-01T22:58:00.909Z,95526.94
2017-12-01T23:00:29.951Z,95531.36
2017-12-01T23:03:00.006Z,95532.33
2017-12-01T23:05:29.077Z,95531.31
2017-12-01T23:07:58.212Z,95527.31
2017-12-01T23:10:27.235Z,95526.36
2017-12-01T23:12:58.195Z,95522.48
2017-12-01T23:15:28.146Z,95521.84
2017-12-01T23:17:57.213Z,95520.19
2017-12-01T23:20:26.270Z,95521.33
2017-12-01T23:25:36.523Z,95523.55
2017-12-01T23:28:05.571Z,95522.98
2017-12-01T23:30:34.634Z,95533.17
2017-12-01T23:33:18.937Z,95529.88
2017-12-01T23:38:24.505Z,95530.73
2017-12-01T23:43:28.887Z,95535.64
2017-12-01T23:45:58.959Z,95539.09
2017-12-01T23:48:28.043Z,95538.16
2017-12-01T23:53:32.278Z,95547.18
2017-12-01T23:56:01.439Z,95550.83
2017-12-01T23:58:30.534Z,95553.07
